Time;durP1;ratioP1;P1;durP2;ratioP2;P2;SDS_P1;SDS_P2;PMS_P1;PMS_P2;Temp;Humidity;BMP_temperature;BMP_pressure;BME280_temperature;BME280_humidity;BME280_pressure;Samples;Min_cycle;Max_cycle;Signal;HPM_P1;HPM_P2
2023/09/08 00:01:19;;;;;;;7.27;5.70;;;;;;;;;;5057906;28;20457;-78
2023/09/08 00:03:47;;;;;;;6.53;5.40;;;;;;;;;;5058420;28;20473;-79
2023/09/08 00:06:15;;;;;;;7.30;6.40;;;;;;;;;;5058025;28;20453;-78
2023/09/08 00:08:43;;;;;;;7.70;5.60;;;;;;;;;;5057864;28;20463;-79
2023/09/08 00:11:10;;;;;;;9.87;6.47;;;;;;;;;;5058833;28;20495;-79
2023/09/08 00:13:37;;;;;;;8.40;6.57;;;;;;;;;;5056797;28;20477;-79
2023/09/08 00:16:04;;;;;;;6.80;6.00;;;;;;;;;;5057763;28;20456;-79
2023/09/08 00:18:31;;;;;;;9.93;7.37;;;;;;;;;;5058097;28;20484;-79
2023/09/08 00:21:00;;;;;;;6.90;6.20;;;;;;;;;;5057734;28;20839;-78
2023/09/08 00:23:28;;;;;;;6.80;5.97;;;;;;;;;;5058057;28;20851;-79
2023/09/08 00:25:55;;;;;;;7.40;6.30;;;;;;;;;;5058051;28;20468;-78
2023/09/08 00:28:23;;;;;;;9.43;6.73;;;;;;;;;;5040069;28;20484;-79
2023/09/08 00:30:50;;;;;;;6.90;6.20;;;;;;;;;;5056465;28;20583;-79
2023/09/08 00:33:19;;;;;;;7.37;6.00;;;;;;;;;;5056881;28;20473;-79
2023/09/08 00:35:46;;;;;;;9.60;6.00;;;;;;;;;;5057080;28;20482;-79
2023/09/08 00:38:14;;;;;;;7.10;6.30;;;;;;;;;;5057127;28;20449;-78
2023/09/08 00:40:41;;;;;;;7.20;6.47;;;;;;;;;;5057377;28;20454;-79
2023/09/08 00:43:09;;;;;;;8.23;6.20;;;;;;;;;;5056894;28;20461;-79
2023/09/08 00:45:38;;;;;;;6.33;5.73;;;;;;;;;;5057437;28;20461;-78
2023/09/08 00:48:06;;;;;;;8.50;6.73;;;;;;;;;;5066098;28;20454;-79
2023/09/08 00:50:33;;;;;;;7.40;6.70;;;;;;;;;;5068021;28;20521;-79
2023/09/08 00:53:00;;;;;;;8.20;7.17;;;;;;;;;;5068130;28;20477;-79
2023/09/08 00:55:28;;;;;;;7.97;6.40;;;;;;;;;;5069628;28;20448;-80
2023/09/08 00:57:56;;;;;;;11.10;6.70;;;;;;;;;;5069849;28;20452;-79
2023/09/08 01:00:23;;;;;;;8.57;6.67;;;;;;;;;;5069198;28;20445;-80
2023/09/08 01:02:50;;;;;;;6.33;5.70;;;;;;;;;;5067762;28;20471;-79
2023/09/08 01:05:17;;;;;;;6.90;6.20;;;;;;;;;;5068069;28;20445;-79
2023/09/08 01:07:45;;;;;;;10.00;6.27;;;;;;;;;;5068398;28;20451;-78
2023/09/08 01:10:13;;;;;;;7.77;6.47;;;;;;;;;;5067574;28;21054;-79
2023/09/08 01:12:41;;;;;;;8.77;6.30;;;;;;;;;;5068639;28;20923;-79
2023/09/08 01:15:09;;;;;;;7.37;6.10;;;;;;;;;;5069898;28;20455;-80
2023/09/08 01:17:36;;;;;;;10.10;6.80;;;;;;;;;;5068639;28;20452;-79
2023/09/08 01:20:05;;;;;;;6.63;5.93;;;;;;;;;;5067515;28;20445;-79
2023/09/08 01:22:46;;;;;;;12.60;6.93;;;;;;;;;;5067595;28;20526;-79
2023/09/08 01:25:24;;;;;;;7.90;6.60;;;;;;;;;;5067865;28;20850;-78
2023/09/08 01:27:52;;;;;;;7.73;7.00;;;;;;;;;;5068062;28;20862;-79
2023/09/08 01:30:20;;;;;;;7.07;6.40;;;;;;;;;;5066812;28;21091;-79
2023/09/08 01:32:47;;;;;;;8.13;6.70;;;;;;;;;;5068778;28;20471;-79
2023/09/08 01:35:15;;;;;;;8.27;7.00;;;;;;;;;;5068958;28;20468;-79
2023/09/08 01:37:42;;;;;;;8.50;6.70;;;;;;;;;;5070285;28;20487;-79
2023/09/08 01:40:10;;;;;;;9.87;7.37;;;;;;;;;;5067702;28;20453;-79
2023/09/08 01:42:39;;;;;;;7.73;6.73;;;;;;;;;;5068800;28;20469;-79
2023/09/08 01:45:07;;;;;;;7.90;7.10;;;;;;;;;;5068723;28;20440;-80
2023/09/08 01:47:34;;;;;;;7.70;6.80;;;;;;;;;;5068909;28;20450;-78
2023/09/08 01:50:01;;;;;;;7.43;6.73;;;;;;;;;;5068829;28;20559;-79
2023/09/08 01:52:28;;;;;;;9.20;7.40;;;;;;;;;;5068866;28;20461;-79
2023/09/08 01:54:56;;;;;;;9.50;7.37;;;;;;;;;;5066958;28;20449;-79
2023/09/08 01:57:23;;;;;;;8.07;6.57;;;;;;;;;;5061604;28;20459;-80
2023/09/08 01:59:51;;;;;;;13.20;6.43;;;;;;;;;;5061721;28;20460;-80
2023/09/08 02:02:19;;;;;;;8.37;7.57;;;;;;;;;;5062046;28;20475;-80
2023/09/08 02:04:46;;;;;;;13.03;9.50;;;;;;;;;;5062066;28;20452;-80
2023/09/08 02:07:13;;;;;;;7.97;7.27;;;;;;;;;;5061873;28;20453;-80
2023/09/08 02:09:40;;;;;;;8.07;6.97;;;;;;;;;;5062498;28;20457;-80
2023/09/08 02:12:07;;;;;;;11.37;6.93;;;;;;;;;;5061096;28;20459;-80
2023/09/08 02:14:35;;;;;;;7.10;6.33;;;;;;;;;;5061918;28;20445;-80
2023/09/08 02:17:03;;;;;;;12.37;7.40;;;;;;;;;;5062887;28;20471;-80
2023/09/08 02:19:30;;;;;;;15.97;13.77;;;;;;;;;;5062901;28;20468;-80
2023/09/08 02:21:57;;;;;;;10.87;7.57;;;;;;;;;;5062061;28;20457;-79
2023/09/08 02:24:25;;;;;;;8.03;7.20;;;;;;;;;;5062068;28;20461;-80
2023/09/08 02:26:52;;;;;;;8.70;7.77;;;;;;;;;;5061975;28;20439;-79
2023/09/08 02:29:19;;;;;;;8.70;7.57;;;;;;;;;;5061803;28;20467;-79
2023/09/08 02:31:46;;;;;;;17.30;13.60;;;;;;;;;;5060735;28;20493;-80
2023/09/08 02:34:14;;;;;;;9.13;7.87;;;;;;;;;;5061260;28;20487;-80
2023/09/08 02:36:42;;;;;;;8.23;7.13;;;;;;;;;;5064593;28;20520;-80
2023/09/08 02:39:10;;;;;;;10.27;9.00;;;;;;;;;;5065223;28;20548;-81
2023/09/08 02:41:37;;;;;;;8.33;7.63;;;;;;;;;;5065515;28;20481;-80
2023/09/08 02:44:05;;;;;;;10.67;7.90;;;;;;;;;;5065647;28;20477;-80
2023/09/08 02:46:32;;;;;;;7.10;6.00;;;;;;;;;;5065897;28;20456;-79
2023/09/08 02:48:59;;;;;;;9.30;7.50;;;;;;;;;;5064591;28;20460;-80
2023/09/08 02:51:28;;;;;;;11.73;7.80;;;;;;;;;;5065592;28;20869;-79
2023/09/08 02:53:55;;;;;;;8.40;7.60;;;;;;;;;;5064983;28;20468;-79
2023/09/08 02:56:22;;;;;;;9.17;7.37;;;;;;;;;;5064540;28;20448;-79
2023/09/08 02:58:49;;;;;;;11.63;7.60;;;;;;;;;;5064289;28;20452;-79
2023/09/08 03:01:20;;;;;;;8.07;7.27;;;;;;;;;;5064546;28;20456;-79
2023/09/08 03:03:47;;;;;;;9.10;7.37;;;;;;;;;;5065102;28;20483;-80
2023/09/08 03:06:15;;;;;;;8.37;7.57;;;;;;;;;;5065057;28;20953;-81
2023/09/08 03:08:43;;;;;;;9.47;7.77;;;;;;;;;;5063768;28;20461;-80
2023/09/08 03:11:10;;;;;;;8.67;7.57;;;;;;;;;;5063979;28;20471;-81
2023/09/08 03:13:37;;;;;;;9.10;7.83;;;;;;;;;;5064418;28;20472;-79
2023/09/08 03:16:05;;;;;;;9.00;8.10;;;;;;;;;;5063657;28;20453;-80
2023/09/08 03:18:33;;;;;;;13.80;7.80;;;;;;;;;;5064120;28;20870;-79
2023/09/08 03:21:03;;;;;;;8.77;7.40;;;;;;;;;;5065295;28;20953;-79
2023/09/08 03:23:30;;;;;;;13.57;7.37;;;;;;;;;;5064706;28;20538;-80
2023/09/08 03:25:59;;;;;;;12.13;7.90;;;;;;;;;;5064028;28;20954;-79
2023/09/08 03:28:26;;;;;;;11.37;9.03;;;;;;;;;;5064404;28;20547;-79
2023/09/08 03:30:53;;;;;;;8.70;7.30;;;;;;;;;;5064503;28;20484;-79
2023/09/08 03:33:20;;;;;;;14.20;8.07;;;;;;;;;;5064817;28;20476;-79
2023/09/08 03:35:47;;;;;;;9.10;7.93;;;;;;;;;;5064411;28;20429;-79
2023/09/08 03:38:14;;;;;;;8.63;7.30;;;;;;;;;;5064355;28;20437;-79
2023/09/08 03:40:42;;;;;;;8.60;7.27;;;;;;;;;;5064784;28;20453;-79
2023/09/08 03:43:11;;;;;;;13.67;7.60;;;;;;;;;;5062954;28;20472;-79
2023/09/08 03:45:38;;;;;;;8.50;7.00;;;;;;;;;;5062802;28;20453;-80
2023/09/08 03:48:05;;;;;;;9.27;7.57;;;;;;;;;;5062859;28;20452;-81
2023/09/08 03:50:32;;;;;;;10.33;8.10;;;;;;;;;;5062678;28;20519;-80
2023/09/08 03:52:59;;;;;;;7.70;7.00;;;;;;;;;;5062249;28;20468;-79
2023/09/08 03:55:26;;;;;;;9.27;7.77;;;;;;;;;;5063514;28;20448;-79
2023/09/08 03:57:53;;;;;;;8.23;7.47;;;;;;;;;;5062336;28;20783;-80
2023/09/08 04:00:22;;;;;;;11.13;7.90;;;;;;;;;;5061159;28;20460;-79
2023/09/08 04:02:49;;;;;;;9.70;7.67;;;;;;;;;;5062137;28;20476;-79
2023/09/08 04:05:17;;;;;;;10.80;8.20;;;;;;;;;;5062243;28;20561;-79
2023/09/08 04:07:44;;;;;;;8.90;8.00;;;;;;;;;;5063412;28;20521;-79
2023/09/08 04:10:12;;;;;;;8.60;6.90;;;;;;;;;;5062621;28;20994;-79
2023/09/08 04:12:39;;;;;;;11.50;7.60;;;;;;;;;;5062652;28;20473;-80
2023/09/08 04:15:07;;;;;;;9.93;8.53;;;;;;;;;;5062675;28;20830;-79
2023/09/08 04:17:35;;;;;;;10.87;8.80;;;;;;;;;;5062836;28;20469;-79
2023/09/08 04:20:05;;;;;;;10.23;8.37;;;;;;;;;;5062571;28;20456;-79
2023/09/08 04:22:32;;;;;;;15.67;9.00;;;;;;;;;;5062482;28;20560;-78
2023/09/08 04:24:59;;;;;;;10.00;8.73;;;;;;;;;;5062618;28;20465;-79
2023/09/08 04:27:26;;;;;;;13.63;9.30;;;;;;;;;;5062234;28;20449;-79
2023/09/08 04:29:53;;;;;;;11.10;8.10;;;;;;;;;;5061417;28;20471;-80
2023/09/08 04:32:20;;;;;;;9.00;7.97;;;;;;;;;;5061691;28;20500;-79
2023/09/08 04:34:50;;;;;;;12.63;8.80;;;;;;;;;;5062429;28;20425;-79
2023/09/08 04:37:17;;;;;;;11.33;10.20;;;;;;;;;;5062480;28;20492;-79
2023/09/08 04:39:44;;;;;;;9.03;8.13;;;;;;;;;;5060052;28;20459;-80
2023/09/08 04:42:13;;;;;;;12.20;9.13;;;;;;;;;;5059420;28;20453;-80
2023/09/08 04:44:40;;;;;;;8.87;7.97;;;;;;;;;;5060345;28;20507;-79
2023/09/08 04:47:07;;;;;;;12.07;8.10;;;;;;;;;;5060990;28;20963;-80
2023/09/08 04:49:34;;;;;;;8.17;7.20;;;;;;;;;;5060793;28;20455;-80
2023/09/08 04:52:02;;;;;;;8.70;7.30;;;;;;;;;;5061048;28;20596;-80
2023/09/08 04:54:30;;;;;;;9.00;7.80;;;;;;;;;;5058885;28;20456;-78
2023/09/08 04:56:57;;;;;;;9.00;8.10;;;;;;;;;;5056519;28;20445;-78
2023/09/08 04:59:24;;;;;;;11.70;8.80;;;;;;;;;;5056364;28;20456;-78
2023/09/08 05:01:51;;;;;;;10.00;7.37;;;;;;;;;;5058014;28;20451;-78
2023/09/08 05:04:18;;;;;;;8.57;7.77;;;;;;;;;;5056673;28;20469;-78
2023/09/08 05:06:46;;;;;;;9.10;7.70;;;;;;;;;;5056831;28;20514;-78
2023/09/08 05:09:14;;;;;;;8.53;7.63;;;;;;;;;;5058717;28;20456;-78
2023/09/08 05:11:41;;;;;;;9.53;8.13;;;;;;;;;;5059524;28;20542;-78
2023/09/08 05:14:09;;;;;;;9.70;8.70;;;;;;;;;;5059854;28;20468;-78
2023/09/08 05:16:45;;;;;;;12.87;8.10;;;;;;;;;;5060097;28;20548;-79
2023/09/08 05:19:19;;;;;;;12.03;8.33;;;;;;;;;;5059283;28;20540;-79
2023/09/08 05:21:46;;;;;;;8.70;7.63;;;;;;;;;;5039081;28;20476;-79
2023/09/08 05:24:15;;;;;;;8.77;6.80;;;;;;;;;;5037837;28;20907;-79
2023/09/08 05:26:43;;;;;;;8.97;7.90;;;;;;;;;;5037563;28;20450;-79
2023/09/08 05:29:10;;;;;;;8.90;7.60;;;;;;;;;;5051886;28;20437;-80
2023/09/08 05:31:37;;;;;;;9.93;8.17;;;;;;;;;;5058630;28;20495;-79
2023/09/08 05:34:04;;;;;;;11.33;9.43;;;;;;;;;;5057570;28;20472;-79
2023/09/08 05:36:32;;;;;;;10.87;7.80;;;;;;;;;;5057451;28;20452;-79
2023/09/08 05:39:00;;;;;;;12.70;8.27;;;;;;;;;;5057223;28;20482;-79
2023/09/08 05:41:29;;;;;;;8.40;7.50;;;;;;;;;;5057378;28;20447;-80
2023/09/08 05:43:56;;;;;;;7.87;7.00;;;;;;;;;;5056813;28;20469;-79
2023/09/08 05:46:23;;;;;;;8.80;7.90;;;;;;;;;;5057808;28;20453;-79
2023/09/08 05:48:50;;;;;;;8.03;7.13;;;;;;;;;;5058065;28;20453;-79
2023/09/08 05:51:17;;;;;;;7.83;6.90;;;;;;;;;;5057279;28;20485;-79
2023/09/08 05:53:45;;;;;;;13.07;8.63;;;;;;;;;;5057779;28;20960;-79
2023/09/08 05:56:12;;;;;;;9.87;8.30;;;;;;;;;;5057291;28;20448;-78
2023/09/08 05:58:40;;;;;;;10.30;7.80;;;;;;;;;;5057228;28;20444;-79
2023/09/08 06:01:07;;;;;;;8.57;7.17;;;;;;;;;;5056935;28;20451;-78
2023/09/08 06:03:35;;;;;;;8.97;7.83;;;;;;;;;;5057957;28;20469;-78
2023/09/08 06:06:02;;;;;;;8.37;7.33;;;;;;;;;;5054814;28;20459;-77
2023/09/08 06:08:29;;;;;;;10.60;7.33;;;;;;;;;;5055532;28;20830;-80
2023/09/08 06:10:56;;;;;;;23.43;6.80;;;;;;;;;;5059711;28;20452;-78
2023/09/08 06:13:24;;;;;;;7.80;6.43;;;;;;;;;;5063088;28;20492;-79
2023/09/08 06:15:55;;;;;;;8.13;5.90;;;;;;;;;;5060831;28;20460;-76
2023/09/08 06:18:25;;;;;;;5.80;5.20;;;;;;;;;;5062629;28;20463;-79
2023/09/08 06:20:53;;;;;;;11.30;6.03;;;;;;;;;;5064256;28;20452;-82
2023/09/08 06:23:21;;;;;;;11.70;5.93;;;;;;;;;;5062863;28;20465;-82
2023/09/08 06:25:49;;;;;;;6.17;5.57;;;;;;;;;;5063499;28;20528;-80
2023/09/08 06:28:16;;;;;;;5.47;4.97;;;;;;;;;;5063702;28;20464;-80
2023/09/08 06:30:43;;;;;;;6.60;6.00;;;;;;;;;;5063984;28;20474;-82
2023/09/08 06:33:11;;;;;;;4.80;4.50;;;;;;;;;;5064806;28;20496;-83
2023/09/08 06:35:39;;;;;;;6.10;5.37;;;;;;;;;;5064834;28;20444;-83
2023/09/08 06:38:06;;;;;;;9.33;5.37;;;;;;;;;;5064644;28;20593;-82
2023/09/08 06:40:33;;;;;;;5.43;4.90;;;;;;;;;;5064465;28;20451;-81
2023/09/08 06:43:00;;;;;;;5.43;4.90;;;;;;;;;;5064104;28;20444;-81
2023/09/08 06:45:27;;;;;;;10.07;5.30;;;;;;;;;;5062145;28;20443;-80
2023/09/08 06:47:55;;;;;;;6.27;5.63;;;;;;;;;;5043856;28;20471;-81
2023/09/08 06:50:23;;;;;;;5.83;4.83;;;;;;;;;;5044599;28;20449;-79
2023/09/08 06:52:51;;;;;;;6.53;6.03;;;;;;;;;;5042903;28;20519;-80
2023/09/08 06:55:19;;;;;;;6.60;5.70;;;;;;;;;;5043617;28;20443;-80
2023/09/08 06:57:46;;;;;;;6.20;5.00;;;;;;;;;;5045098;28;20500;-80
2023/09/08 07:00:14;;;;;;;8.93;5.77;;;;;;;;;;5044085;28;20455;-80
2023/09/08 07:02:42;;;;;;;7.07;5.53;;;;;;;;;;5041125;28;20587;-80
2023/09/08 07:05:10;;;;;;;5.73;5.17;;;;;;;;;;5041865;28;20544;-80
2023/09/08 07:07:39;;;;;;;5.83;5.30;;;;;;;;;;5042654;28;20484;-80
2023/09/08 07:10:07;;;;;;;6.20;5.60;;;;;;;;;;5042187;28;20556;-81
2023/09/08 07:12:34;;;;;;;7.47;5.60;;;;;;;;;;5041114;28;20542;-81
2023/09/08 07:15:02;;;;;;;6.87;6.03;;;;;;;;;;5041960;28;20453;-81
2023/09/08 07:17:29;;;;;;;6.00;5.40;;;;;;;;;;5042143;28;20532;-81
2023/09/08 07:19:56;;;;;;;10.30;6.40;;;;;;;;;;5041348;28;20464;-82
2023/09/08 07:22:23;;;;;;;7.33;6.63;;;;;;;;;;5040612;28;20744;-81
2023/09/08 07:24:52;;;;;;;6.07;5.47;;;;;;;;;;5041226;28;20458;-82
2023/09/08 07:27:20;;;;;;;9.30;5.87;;;;;;;;;;5042182;28;20481;-81
2023/09/08 07:29:47;;;;;;;7.97;5.80;;;;;;;;;;5042378;28;20470;-88
2023/09/08 07:32:15;;;;;;;10.40;6.97;;;;;;;;;;5044828;28;20552;-82
2023/09/08 07:34:42;;;;;;;7.80;5.90;;;;;;;;;;5046193;28;20458;-82
2023/09/08 07:37:09;;;;;;;10.03;6.40;;;;;;;;;;5044137;28;20450;-82
2023/09/08 07:39:36;;;;;;;8.93;6.63;;;;;;;;;;5043325;28;20841;-83
2023/09/08 07:42:05;;;;;;;10.13;6.70;;;;;;;;;;5056010;28;20946;-83
2023/09/08 07:44:32;;;;;;;6.97;5.40;;;;;;;;;;5062025;28;20460;-82
2023/09/08 07:46:59;;;;;;;11.80;7.20;;;;;;;;;;5062476;28;20545;-82
2023/09/08 07:49:26;;;;;;;7.87;6.27;;;;;;;;;;5062555;28;20448;-83
2023/09/08 07:51:54;;;;;;;8.70;6.57;;;;;;;;;;5070993;22;20600;-79
2023/09/08 07:54:21;;;;;;;8.13;5.90;;;;;;;;;;5044750;28;20479;-79
2023/09/08 07:56:48;;;;;;;6.23;5.57;;;;;;;;;;5045293;28;20468;-80
2023/09/08 07:59:17;;;;;;;6.60;6.00;;;;;;;;;;5042312;28;20552;-78
2023/09/08 08:01:44;;;;;;;9.00;6.40;;;;;;;;;;5042492;28;20510;-77
2023/09/08 08:04:12;;;;;;;10.07;4.70;;;;;;;;;;5043364;28;20457;-79
2023/09/08 08:06:39;;;;;;;5.67;5.13;;;;;;;;;;5043627;28;20500;-78
2023/09/08 08:09:06;;;;;;;5.57;4.90;;;;;;;;;;5043087;28;20545;-77
2023/09/08 08:11:33;;;;;;;5.23;4.73;;;;;;;;;;5042644;28;20525;-78
2023/09/08 08:14:01;;;;;;;11.07;5.10;;;;;;;;;;5042459;28;20534;-77
2023/09/08 08:16:30;;;;;;;6.43;5.70;;;;;;;;;;5041102;28;20945;-78
2023/09/08 08:18:59;;;;;;;5.87;5.27;;;;;;;;;;5042322;28;20472;-78
2023/09/08 08:21:26;;;;;;;5.70;5.13;;;;;;;;;;5041001;28;20488;-78
2023/09/08 08:23:54;;;;;;;8.10;5.67;;;;;;;;;;5041185;28;20474;-78
2023/09/08 08:26:22;;;;;;;6.30;5.70;;;;;;;;;;5041517;28;20895;-78
2023/09/08 08:28:50;;;;;;;4.80;4.40;;;;;;;;;;5042261;28;20458;-77
2023/09/08 08:31:20;;;;;;;6.83;4.40;;;;;;;;;;5041196;28;20461;-77
2023/09/08 08:33:51;;;;;;;7.20;5.60;;;;;;;;;;5040932;28;20608;-78
2023/09/08 08:36:18;;;;;;;8.17;6.10;;;;;;;;;;5040904;28;20450;-78
2023/09/08 08:38:46;;;;;;;7.50;5.60;;;;;;;;;;5041164;28;20464;-78
2023/09/08 08:41:14;;;;;;;5.63;5.13;;;;;;;;;;5042294;28;20462;-78
2023/09/08 08:43:44;;;;;;;8.27;5.47;;;;;;;;;;5041278;28;21047;-80
2023/09/08 08:46:12;;;;;;;6.43;5.50;;;;;;;;;;5039231;28;20462;-79
2023/09/08 08:48:39;;;;;;;7.07;5.13;;;;;;;;;;5036478;28;20469;-77
2023/09/08 08:51:10;;;;;;;5.70;5.17;;;;;;;;;;5037201;28;20486;-76
2023/09/08 08:53:39;;;;;;;7.13;5.03;;;;;;;;;;5044181;28;20525;-79
2023/09/08 08:56:08;;;;;;;10.00;5.30;;;;;;;;;;5039745;28;20513;-78
2023/09/08 08:58:37;;;;;;;6.50;5.77;;;;;;;;;;5036930;28;20484;-79
2023/09/08 09:01:05;;;;;;;6.73;6.00;;;;;;;;;;5040260;28;20499;-77
2023/09/08 09:03:34;;;;;;;7.33;6.63;;;;;;;;;;5039312;28;20475;-78
2023/09/08 09:06:01;;;;;;;5.60;4.53;;;;;;;;;;5039522;28;20524;-78
2023/09/08 09:08:30;;;;;;;7.33;4.80;;;;;;;;;;5039599;28;20489;-77
2023/09/08 09:10:58;;;;;;;6.00;5.40;;;;;;;;;;5040627;28;20454;-78
2023/09/08 09:13:25;;;;;;;6.13;5.07;;;;;;;;;;5041591;28;20492;-79
2023/09/08 09:15:53;;;;;;;5.03;4.53;;;;;;;;;;5041707;28;20903;-80
2023/09/08 09:18:20;;;;;;;7.50;4.43;;;;;;;;;;5039475;28;20458;-78
2023/09/08 09:20:55;;;;;;;8.90;5.57;;;;;;;;;;5038162;28;20541;-77
2023/09/08 09:23:30;;;;;;;7.53;6.73;;;;;;;;;;5035670;28;20485;-78
2023/09/08 09:25:58;;;;;;;5.43;4.93;;;;;;;;;;5037384;28;20881;-77
2023/09/08 09:28:26;;;;;;;6.47;5.80;;;;;;;;;;5038959;28;20520;-78
2023/09/08 09:30:55;;;;;;;11.90;5.80;;;;;;;;;;5037309;28;20466;-78
2023/09/08 09:33:24;;;;;;;7.90;5.90;;;;;;;;;;5040637;28;20494;-78
2023/09/08 09:35:53;;;;;;;7.67;5.93;;;;;;;;;;5038626;28;21002;-77
2023/09/08 09:38:20;;;;;;;5.87;5.27;;;;;;;;;;5040724;28;20953;-78
2023/09/08 09:40:51;;;;;;;8.90;6.00;;;;;;;;;;5040930;28;20464;-78
2023/09/08 09:43:22;;;;;;;5.40;4.80;;;;;;;;;;5042599;28;20474;-80
2023/09/08 09:45:49;;;;;;;9.70;5.43;;;;;;;;;;5039695;28;20521;-83
2023/09/08 09:48:17;;;;;;;7.50;5.63;;;;;;;;;;5040032;28;20453;-82
2023/09/08 09:50:44;;;;;;;10.23;5.10;;;;;;;;;;5039609;28;20493;-82
2023/09/08 09:53:13;;;;;;;9.27;5.40;;;;;;;;;;5040116;28;20836;-82
2023/09/08 09:55:42;;;;;;;7.30;5.20;;;;;;;;;;5040521;28;20465;-80
2023/09/08 09:58:11;;;;;;;10.33;5.60;;;;;;;;;;5044024;28;20595;-78
2023/09/08 10:00:40;;;;;;;11.00;5.60;;;;;;;;;;5041375;28;20556;-82
2023/09/08 10:03:08;;;;;;;7.00;6.37;;;;;;;;;;5046255;28;20868;-79
2023/09/08 10:05:35;;;;;;;7.53;5.80;;;;;;;;;;5046569;28;20457;-80
2023/09/08 10:08:02;;;;;;;5.60;5.10;;;;;;;;;;5047610;28;20977;-79
2023/09/08 10:10:31;;;;;;;5.60;5.07;;;;;;;;;;5046910;28;20462;-80
2023/09/08 10:13:01;;;;;;;7.10;5.73;;;;;;;;;;5046984;28;20565;-80
2023/09/08 10:15:30;;;;;;;5.80;5.30;;;;;;;;;;5044978;28;20453;-79
2023/09/08 10:17:59;;;;;;;6.10;5.50;;;;;;;;;;5046985;28;20466;-79
2023/09/08 10:20:27;;;;;;;8.33;5.50;;;;;;;;;;5045006;28;20460;-79
2023/09/08 10:22:55;;;;;;;6.40;5.30;;;;;;;;;;5045091;28;20888;-79
2023/09/08 10:25:26;;;;;;;6.87;5.90;;;;;;;;;;5044509;28;20469;-80
2023/09/08 10:27:54;;;;;;;11.60;6.20;;;;;;;;;;5044297;28;20439;-79
2023/09/08 10:30:22;;;;;;;6.43;5.83;;;;;;;;;;5046005;28;20450;-80
2023/09/08 10:32:51;;;;;;;6.33;5.53;;;;;;;;;;5045597;28;20993;-80
2023/09/08 10:35:19;;;;;;;6.00;5.47;;;;;;;;;;5043800;28;20441;-81
2023/09/08 10:37:46;;;;;;;7.03;5.63;;;;;;;;;;5043477;28;21013;-80
2023/09/08 10:40:23;;;;;;;6.90;5.33;;;;;;;;;;5042712;28;20549;-80
2023/09/08 10:42:50;;;;;;;7.27;6.40;;;;;;;;;;5041394;28;20901;-79
2023/09/08 10:45:18;;;;;;;6.53;5.63;;;;;;;;;;5042314;28;20470;-79
2023/09/08 10:47:59;;;;;;;5.40;4.90;;;;;;;;;;5040723;28;20466;-79
2023/09/08 10:50:32;;;;;;;9.40;6.20;;;;;;;;;;5042355;28;20454;-79
2023/09/08 10:53:10;;;;;;;10.20;5.40;;;;;;;;;;5039405;28;20502;-79
2023/09/08 10:55:38;;;;;;;5.43;4.93;;;;;;;;;;5040404;28;20488;-78
2023/09/08 10:58:06;;;;;;;6.80;5.77;;;;;;;;;;5044222;28;20491;-80
2023/09/08 11:00:46;;;;;;;6.77;6.10;;;;;;;;;;5046866;28;20485;-79
2023/09/08 11:03:15;;;;;;;8.07;7.30;;;;;;;;;;5045522;28;20468;-80
2023/09/08 11:05:45;;;;;;;10.40;6.43;;;;;;;;;;5046845;28;20954;-79
2023/09/08 11:08:14;;;;;;;5.67;5.10;;;;;;;;;;5045974;28;20469;-80
2023/09/08 11:10:42;;;;;;;4.73;4.33;;;;;;;;;;5046092;28;20472;-79
2023/09/08 11:13:09;;;;;;;6.90;5.70;;;;;;;;;;5046444;28;21020;-81
2023/09/08 11:15:36;;;;;;;5.10;4.53;;;;;;;;;;5044745;28;20438;-79
2023/09/08 11:18:07;;;;;;;11.93;5.80;;;;;;;;;;5045044;28;20442;-79
2023/09/08 11:20:36;;;;;;;5.67;5.10;;;;;;;;;;5046109;28;20454;-80
2023/09/08 11:23:04;;;;;;;6.93;5.30;;;;;;;;;;5045903;28;20458;-80
2023/09/08 11:25:37;;;;;;;7.77;6.13;;;;;;;;;;5048971;28;20480;-80
2023/09/08 11:28:05;;;;;;;5.67;5.13;;;;;;;;;;5045122;28;20454;-80
2023/09/08 11:30:33;;;;;;;6.73;5.43;;;;;;;;;;5041794;28;20526;-80
2023/09/08 11:33:01;;;;;;;6.00;5.47;;;;;;;;;;5044814;28;20576;-81
2023/09/08 11:35:29;;;;;;;7.80;5.80;;;;;;;;;;5038117;28;20445;-79
2023/09/08 11:38:04;;;;;;;7.90;5.17;;;;;;;;;;5037469;28;20944;-80
2023/09/08 11:40:32;;;;;;;5.50;5.00;;;;;;;;;;5037489;28;20505;-81
2023/09/08 11:42:59;;;;;;;6.13;5.60;;;;;;;;;;5039566;28;20508;-79
2023/09/08 11:45:27;;;;;;;6.20;5.60;;;;;;;;;;5045258;28;20450;-80
2023/09/08 11:47:55;;;;;;;5.37;4.83;;;;;;;;;;5046513;28;20457;-80
2023/09/08 11:50:23;;;;;;;8.20;4.97;;;;;;;;;;5045368;28;20484;-80
2023/09/08 11:52:51;;;;;;;4.80;4.40;;;;;;;;;;5044215;28;20501;-80
2023/09/08 11:55:20;;;;;;;5.10;4.60;;;;;;;;;;5046275;28;20465;-80
2023/09/08 11:57:49;;;;;;;6.30;5.70;;;;;;;;;;5044244;28;20934;-80
2023/09/08 12:00:18;;;;;;;5.80;5.17;;;;;;;;;;5044312;28;20923;-81
2023/09/08 12:02:45;;;;;;;5.73;5.23;;;;;;;;;;5045889;28;20524;-80
2023/09/08 12:05:14;;;;;;;6.40;4.67;;;;;;;;;;5046674;28;20462;-81
2023/09/08 12:07:41;;;;;;;8.33;5.80;;;;;;;;;;5045595;28;20453;-81
2023/09/08 12:10:10;;;;;;;6.17;5.63;;;;;;;;;;5046369;28;20454;-81
2023/09/08 12:12:44;;;;;;;6.00;5.50;;;;;;;;;;5045318;28;20474;-81
2023/09/08 12:15:12;;;;;;;7.53;5.30;;;;;;;;;;5045968;28;20984;-82
2023/09/08 12:17:50;;;;;;;6.77;5.10;;;;;;;;;;5040482;28;20470;-80
2023/09/08 12:20:18;;;;;;;6.40;5.43;;;;;;;;;;5044171;28;20960;-80
2023/09/08 12:22:50;;;;;;;6.47;4.90;;;;;;;;;;5037464;28;20469;-80
2023/09/08 12:25:17;;;;;;;9.23;6.37;;;;;;;;;;5040098;28;20444;-81
2023/09/08 12:27:52;;;;;;;10.03;5.47;;;;;;;;;;5040590;28;20454;-82
2023/09/08 12:30:20;;;;;;;9.40;5.73;;;;;;;;;;5039246;28;20453;-80
2023/09/08 12:32:48;;;;;;;6.50;5.53;;;;;;;;;;5041566;28;20501;-82
2023/09/08 12:35:21;;;;;;;9.10;6.27;;;;;;;;;;5045338;28;20443;-82
2023/09/08 12:37:48;;;;;;;7.57;6.47;;;;;;;;;;5043363;28;20816;-83
2023/09/08 12:40:16;;;;;;;6.70;5.90;;;;;;;;;;5045285;28;20512;-83
2023/09/08 12:42:43;;;;;;;9.73;6.70;;;;;;;;;;5044688;28;20462;-82
2023/09/08 12:45:11;;;;;;;8.97;6.03;;;;;;;;;;5044350;28;20468;-82
2023/09/08 12:47:39;;;;;;;9.10;5.30;;;;;;;;;;5042375;28;21041;-84
2023/09/08 12:50:07;;;;;;;7.83;6.43;;;;;;;;;;5043617;28;20461;-83
2023/09/08 12:52:34;;;;;;;6.07;5.47;;;;;;;;;;5042141;28;20481;-83
2023/09/08 12:55:01;;;;;;;6.80;6.20;;;;;;;;;;5050429;28;20491;-82
2023/09/08 12:57:29;;;;;;;7.20;5.80;;;;;;;;;;5062362;28;20440;-81
2023/09/08 12:59:57;;;;;;;6.57;5.97;;;;;;;;;;5062463;28;20447;-82
2023/09/08 13:02:25;;;;;;;6.77;6.17;;;;;;;;;;5064510;28;20559;-83
2023/09/08 13:04:54;;;;;;;6.83;5.70;;;;;;;;;;5063917;28;20821;-82
2023/09/08 13:07:21;;;;;;;7.03;6.00;;;;;;;;;;5063269;28;20468;-82
2023/09/08 13:09:48;;;;;;;7.00;6.40;;;;;;;;;;5063916;28;20457;-82
2023/09/08 13:12:15;;;;;;;7.40;6.70;;;;;;;;;;5064665;28;20516;-81
2023/09/08 13:14:43;;;;;;;8.33;6.10;;;;;;;;;;5064099;28;20498;-82
2023/09/08 13:17:10;;;;;;;7.07;6.43;;;;;;;;;;5063000;28;20468;-81
2023/09/08 13:19:39;;;;;;;8.40;6.13;;;;;;;;;;5062643;28;20433;-79
2023/09/08 13:22:07;;;;;;;9.47;5.53;;;;;;;;;;5060862;28;20452;-81
2023/09/08 13:24:34;;;;;;;6.07;5.47;;;;;;;;;;5061128;28;20440;-82
2023/09/08 13:27:01;;;;;;;8.80;6.03;;;;;;;;;;5061200;28;20444;-81
2023/09/08 13:29:29;;;;;;;6.47;5.93;;;;;;;;;;5060959;28;20463;-81
2023/09/08 13:31:57;;;;;;;14.33;6.57;;;;;;;;;;5061228;28;20448;-80
2023/09/08 13:34:24;;;;;;;6.57;6.07;;;;;;;;;;5061488;28;20495;-80
2023/09/08 13:36:53;;;;;;;7.30;6.47;;;;;;;;;;5062558;28;20816;-81
2023/09/08 13:39:20;;;;;;;5.73;5.23;;;;;;;;;;5061693;28;20457;-81
2023/09/08 13:41:49;;;;;;;7.47;5.70;;;;;;;;;;5062640;28;20444;-80
2023/09/08 13:44:17;;;;;;;6.90;6.20;;;;;;;;;;5061292;28;20476;-79
2023/09/08 13:46:44;;;;;;;7.93;7.13;;;;;;;;;;5059710;28;20495;-79
2023/09/08 13:49:12;;;;;;;9.10;5.83;;;;;;;;;;5059221;28;20461;-79
2023/09/08 13:51:39;;;;;;;5.90;4.73;;;;;;;;;;5059151;28;20522;-79
2023/09/08 13:54:08;;;;;;;14.20;6.20;;;;;;;;;;5056454;28;20496;-79
2023/09/08 13:56:35;;;;;;;6.07;5.57;;;;;;;;;;5058519;28;20467;-80
2023/09/08 13:59:02;;;;;;;8.07;6.10;;;;;;;;;;5056390;28;20453;-80
2023/09/08 14:01:29;;;;;;;8.77;5.77;;;;;;;;;;5056118;28;20444;-79
2023/09/08 14:03:57;;;;;;;7.20;5.87;;;;;;;;;;5056859;28;20476;-79
2023/09/08 14:06:24;;;;;;;11.10;5.80;;;;;;;;;;5061283;28;20464;-79
2023/09/08 14:08:53;;;;;;;6.50;5.70;;;;;;;;;;5062074;28;20988;-81
2023/09/08 14:11:24;;;;;;;6.53;5.80;;;;;;;;;;5059850;28;20461;-80
2023/09/08 14:13:51;;;;;;;6.13;5.10;;;;;;;;;;5062641;28;20484;-80
2023/09/08 14:16:20;;;;;;;7.30;5.83;;;;;;;;;;5057682;28;20540;-80
2023/09/08 14:18:47;;;;;;;5.90;5.40;;;;;;;;;;5058191;28;20533;-78
2023/09/08 14:21:16;;;;;;;5.90;5.33;;;;;;;;;;5058070;28;20455;-77
2023/09/08 14:23:43;;;;;;;7.03;5.57;;;;;;;;;;5061123;28;20467;-79
2023/09/08 14:26:12;;;;;;;6.60;5.53;;;;;;;;;;5061205;28;20456;-79
2023/09/08 14:28:40;;;;;;;19.77;5.67;;;;;;;;;;5061044;28;20465;-78
2023/09/08 14:31:09;;;;;;;6.87;6.07;;;;;;;;;;5060374;28;20540;-81
2023/09/08 14:33:36;;;;;;;6.53;5.57;;;;;;;;;;5062262;28;20504;-79
2023/09/08 14:36:07;;;;;;;7.90;5.90;;;;;;;;;;5062265;28;20448;-78
2023/09/08 14:38:34;;;;;;;5.60;5.10;;;;;;;;;;5059751;28;20518;-78
2023/09/08 14:41:03;;;;;;;8.30;5.77;;;;;;;;;;5068744;28;20559;-82
2023/09/08 14:43:31;;;;;;;9.23;5.43;;;;;;;;;;5068842;28;20553;-79
2023/09/08 14:46:02;;;;;;;5.77;5.10;;;;;;;;;;5070721;28;20448;-80